sensor_id;sensor_type;location;lat;lon;timestamp;P1;durP1;ratioP1;P2;durP2;ratioP2
22924;SDS011;11628;51.072;3.712;2022-08-03T00:01:39;7.10;;;1.98;;
22924;SDS011;11628;51.072;3.712;2022-08-03T00:04:06;8.30;;;2.50;;
22924;SDS011;11628;51.072;3.712;2022-08-03T00:06:33;4.03;;;1.90;;
22924;SDS011;11628;51.072;3.712;2022-08-03T00:08:59;7.30;;;2.22;;
22924;SDS011;11628;51.072;3.712;2022-08-03T00:11:25;8.40;;;2.08;;
22924;SDS011;11628;51.072;3.712;2022-08-03T00:13:51;6.22;;;1.85;;
22924;SDS011;11628;51.072;3.712;2022-08-03T00:16:17;8.27;;;1.67;;
22924;SDS011;11628;51.072;3.712;2022-08-03T00:18:43;9.52;;;2.58;;
22924;SDS011;11628;51.072;3.712;2022-08-03T00:21:09;7.60;;;1.90;;
22924;SDS011;11628;51.072;3.712;2022-08-03T00:23:35;4.40;;;2.00;;
22924;SDS011;11628;51.072;3.712;2022-08-03T00:26:01;7.43;;;1.70;;
22924;SDS011;11628;51.072;3.712;2022-08-03T00:28:27;5.63;;;1.65;;
22924;SDS011;11628;51.072;3.712;2022-08-03T00:30:53;6.30;;;1.52;;
22924;SDS011;11628;51.072;3.712;2022-08-03T00:33:22;6.68;;;1.50;;
22924;SDS011;11628;51.072;3.712;2022-08-03T00:35:48;6.80;;;1.70;;
22924;SDS011;11628;51.072;3.712;2022-08-03T00:38:14;5.20;;;1.23;;
22924;SDS011;11628;51.072;3.712;2022-08-03T00:40:39;7.70;;;1.50;;
22924;SDS011;11628;51.072;3.712;2022-08-03T00:43:06;6.25;;;1.48;;
22924;SDS011;11628;51.072;3.712;2022-08-03T00:45:36;9.07;;;1.55;;
22924;SDS011;11628;51.072;3.712;2022-08-03T00:48:05;8.80;;;1.80;;
22924;SDS011;11628;51.072;3.712;2022-08-03T00:50:34;6.18;;;1.50;;
22924;SDS011;11628;51.072;3.712;2022-08-03T00:53:03;6.38;;;1.33;;
22924;SDS011;11628;51.072;3.712;2022-08-03T00:55:29;5.35;;;1.80;;
22924;SDS011;11628;51.072;3.712;2022-08-03T00:57:55;7.40;;;1.40;;
22924;SDS011;11628;51.072;3.712;2022-08-03T01:00:24;5.82;;;1.90;;
22924;SDS011;11628;51.072;3.712;2022-08-03T01:02:51;6.95;;;2.22;;
22924;SDS011;11628;51.072;3.712;2022-08-03T01:05:18;7.80;;;1.80;;
22924;SDS011;11628;51.072;3.712;2022-08-03T01:10:40;6.82;;;1.95;;
22924;SDS011;11628;51.072;3.712;2022-08-03T01:13:14;6.00;;;1.85;;
22924;SDS011;11628;51.072;3.712;2022-08-03T01:16:02;9.20;;;2.03;;
22924;SDS011;11628;51.072;3.712;2022-08-03T01:21:30;5.80;;;1.90;;
22924;SDS011;11628;51.072;3.712;2022-08-03T01:24:21;5.30;;;1.60;;
22924;SDS011;11628;51.072;3.712;2022-08-03T01:27:08;3.55;;;1.15;;
22924;SDS011;11628;51.072;3.712;2022-08-03T01:30:04;3.17;;;1.40;;
22924;SDS011;11628;51.072;3.712;2022-08-03T01:32:45;4.20;;;1.10;;
22924;SDS011;11628;51.072;3.712;2022-08-03T01:35:15;4.90;;;1.30;;
22924;SDS011;11628;51.072;3.712;2022-08-03T01:37:50;7.95;;;2.20;;
22924;SDS011;11628;51.072;3.712;2022-08-03T01:40:21;8.13;;;1.92;;
22924;SDS011;11628;51.072;3.712;2022-08-03T01:42:50;8.13;;;1.83;;
22924;SDS011;11628;51.072;3.712;2022-08-03T01:45:18;7.22;;;2.03;;
22924;SDS011;11628;51.072;3.712;2022-08-03T01:47:47;4.22;;;1.27;;
22924;SDS011;11628;51.072;3.712;2022-08-03T01:50:14;5.95;;;1.50;;
22924;SDS011;11628;51.072;3.712;2022-08-03T01:52:41;4.43;;;1.42;;
22924;SDS011;11628;51.072;3.712;2022-08-03T01:55:08;5.70;;;1.85;;
22924;SDS011;11628;51.072;3.712;2022-08-03T01:57:36;4.25;;;1.30;;
22924;SDS011;11628;51.072;3.712;2022-08-03T02:00:03;6.53;;;1.73;;
22924;SDS011;11628;51.072;3.712;2022-08-03T02:02:31;5.95;;;1.52;;
22924;SDS011;11628;51.072;3.712;2022-08-03T02:04:57;7.65;;;1.70;;
22924;SDS011;11628;51.072;3.712;2022-08-03T02:07:25;9.20;;;1.88;;
22924;SDS011;11628;51.072;3.712;2022-08-03T02:09:53;6.00;;;1.40;;
22924;SDS011;11628;51.072;3.712;2022-08-03T02:12:21;5.85;;;1.25;;
22924;SDS011;11628;51.072;3.712;2022-08-03T02:14:49;5.95;;;1.10;;
22924;SDS011;11628;51.072;3.712;2022-08-03T02:17:16;8.77;;;1.77;;
22924;SDS011;11628;51.072;3.712;2022-08-03T02:19:43;4.00;;;1.75;;
22924;SDS011;11628;51.072;3.712;2022-08-03T02:22:10;8.57;;;1.67;;
22924;SDS011;11628;51.072;3.712;2022-08-03T02:24:38;8.30;;;1.88;;
22924;SDS011;11628;51.072;3.712;2022-08-03T02:27:05;3.60;;;1.08;;
22924;SDS011;11628;51.072;3.712;2022-08-03T02:29:37;6.30;;;1.95;;
22924;SDS011;11628;51.072;3.712;2022-08-03T02:32:04;4.28;;;1.90;;
22924;SDS011;11628;51.072;3.712;2022-08-03T02:34:32;7.78;;;2.05;;
22924;SDS011;11628;51.072;3.712;2022-08-03T02:36:59;7.43;;;1.80;;
22924;SDS011;11628;51.072;3.712;2022-08-03T02:39:29;6.90;;;1.50;;
22924;SDS011;11628;51.072;3.712;2022-08-03T02:41:57;8.13;;;1.63;;
22924;SDS011;11628;51.072;3.712;2022-08-03T02:44:27;3.65;;;1.27;;
22924;SDS011;11628;51.072;3.712;2022-08-03T02:47:02;9.18;;;1.98;;
22924;SDS011;11628;51.072;3.712;2022-08-03T02:49:31;6.87;;;1.63;;
22924;SDS011;11628;51.072;3.712;2022-08-03T02:51:59;6.15;;;1.70;;
22924;SDS011;11628;51.072;3.712;2022-08-03T02:54:26;4.75;;;1.60;;
22924;SDS011;11628;51.072;3.712;2022-08-03T02:56:53;9.15;;;1.88;;
22924;SDS011;11628;51.072;3.712;2022-08-03T02:59:20;6.82;;;2.05;;
22924;SDS011;11628;51.072;3.712;2022-08-03T03:01:47;6.90;;;2.00;;
22924;SDS011;11628;51.072;3.712;2022-08-03T03:04:14;6.35;;;2.42;;
22924;SDS011;11628;51.072;3.712;2022-08-03T03:06:41;7.93;;;1.80;;
22924;SDS011;11628;51.072;3.712;2022-08-03T03:09:08;7.70;;;2.08;;
22924;SDS011;11628;51.072;3.712;2022-08-03T03:11:35;6.47;;;2.03;;
22924;SDS011;11628;51.072;3.712;2022-08-03T03:14:03;7.38;;;2.20;;
22924;SDS011;11628;51.072;3.712;2022-08-03T03:16:30;6.50;;;1.70;;
22924;SDS011;11628;51.072;3.712;2022-08-03T03:18:57;8.73;;;1.85;;
22924;SDS011;11628;51.072;3.712;2022-08-03T03:21:24;7.50;;;1.92;;
22924;SDS011;11628;51.072;3.712;2022-08-03T03:23:51;5.50;;;1.85;;
22924;SDS011;11628;51.072;3.712;2022-08-03T03:26:18;6.82;;;2.00;;
22924;SDS011;11628;51.072;3.712;2022-08-03T03:28:44;5.90;;;1.90;;
22924;SDS011;11628;51.072;3.712;2022-08-03T03:31:10;5.10;;;1.60;;
22924;SDS011;11628;51.072;3.712;2022-08-03T03:33:36;8.20;;;1.80;;
22924;SDS011;11628;51.072;3.712;2022-08-03T03:36:03;10.77;;;2.08;;
22924;SDS011;11628;51.072;3.712;2022-08-03T03:38:30;7.25;;;1.60;;
22924;SDS011;11628;51.072;3.712;2022-08-03T03:40:56;6.07;;;1.70;;
22924;SDS011;11628;51.072;3.712;2022-08-03T03:43:23;8.10;;;1.83;;
22924;SDS011;11628;51.072;3.712;2022-08-03T03:45:49;7.28;;;1.48;;
22924;SDS011;11628;51.072;3.712;2022-08-03T03:48:17;7.75;;;1.60;;
22924;SDS011;11628;51.072;3.712;2022-08-03T03:50:43;9.20;;;1.92;;
22924;SDS011;11628;51.072;3.712;2022-08-03T03:53:10;5.40;;;2.00;;
22924;SDS011;11628;51.072;3.712;2022-08-03T03:55:37;6.18;;;2.13;;
22924;SDS011;11628;51.072;3.712;2022-08-03T03:58:04;6.63;;;1.85;;
22924;SDS011;11628;51.072;3.712;2022-08-03T04:00:31;6.03;;;2.10;;
22924;SDS011;11628;51.072;3.712;2022-08-03T04:02:56;7.97;;;2.47;;
22924;SDS011;11628;51.072;3.712;2022-08-03T04:05:22;6.95;;;2.15;;
22924;SDS011;11628;51.072;3.712;2022-08-03T04:08:07;6.47;;;2.75;;
22924;SDS011;11628;51.072;3.712;2022-08-03T04:11:01;7.80;;;1.80;;
22924;SDS011;11628;51.072;3.712;2022-08-03T04:13:34;6.60;;;2.20;;
22924;SDS011;11628;51.072;3.712;2022-08-03T04:16:02;5.35;;;2.25;;
22924;SDS011;11628;51.072;3.712;2022-08-03T04:18:30;5.45;;;2.00;;
22924;SDS011;11628;51.072;3.712;2022-08-03T04:21:00;7.00;;;1.90;;
22924;SDS011;11628;51.072;3.712;2022-08-03T04:23:29;5.75;;;2.15;;
22924;SDS011;11628;51.072;3.712;2022-08-03T04:25:58;10.43;;;2.30;;
22924;SDS011;11628;51.072;3.712;2022-08-03T04:28:26;9.70;;;2.13;;
22924;SDS011;11628;51.072;3.712;2022-08-03T04:30:53;9.13;;;2.65;;
22924;SDS011;11628;51.072;3.712;2022-08-03T04:33:21;7.75;;;2.05;;
22924;SDS011;11628;51.072;3.712;2022-08-03T04:35:51;11.02;;;2.92;;
22924;SDS011;11628;51.072;3.712;2022-08-03T04:38:19;9.63;;;2.30;;
22924;SDS011;11628;51.072;3.712;2022-08-03T04:40:46;5.07;;;2.20;;
22924;SDS011;11628;51.072;3.712;2022-08-03T04:43:12;10.38;;;2.92;;
22924;SDS011;11628;51.072;3.712;2022-08-03T04:45:40;5.13;;;1.85;;
22924;SDS011;11628;51.072;3.712;2022-08-03T04:48:07;5.95;;;2.20;;
22924;SDS011;11628;51.072;3.712;2022-08-03T04:50:33;4.93;;;1.95;;
22924;SDS011;11628;51.072;3.712;2022-08-03T04:53:00;9.07;;;2.42;;
22924;SDS011;11628;51.072;3.712;2022-08-03T04:55:29;10.38;;;2.45;;
22924;SDS011;11628;51.072;3.712;2022-08-03T04:57:56;18.42;;;4.03;;
22924;SDS011;11628;51.072;3.712;2022-08-03T05:00:22;7.70;;;2.67;;
22924;SDS011;11628;51.072;3.712;2022-08-03T05:02:48;5.80;;;1.80;;
22924;SDS011;11628;51.072;3.712;2022-08-03T05:05:14;9.25;;;2.38;;
22924;SDS011;11628;51.072;3.712;2022-08-03T05:07:41;8.82;;;2.55;;
22924;SDS011;11628;51.072;3.712;2022-08-03T05:10:08;12.13;;;2.05;;
22924;SDS011;11628;51.072;3.712;2022-08-03T05:12:35;7.63;;;2.78;;
22924;SDS011;11628;51.072;3.712;2022-08-03T05:15:01;6.25;;;2.17;;
22924;SDS011;11628;51.072;3.712;2022-08-03T05:17:27;5.57;;;2.20;;
22924;SDS011;11628;51.072;3.712;2022-08-03T05:19:53;8.65;;;2.38;;
22924;SDS011;11628;51.072;3.712;2022-08-03T05:22:19;9.68;;;2.20;;
22924;SDS011;11628;51.072;3.712;2022-08-03T05:24:47;11.00;;;2.60;;
22924;SDS011;11628;51.072;3.712;2022-08-03T05:27:13;7.65;;;2.50;;
22924;SDS011;11628;51.072;3.712;2022-08-03T05:29:43;10.75;;;2.70;;
22924;SDS011;11628;51.072;3.712;2022-08-03T05:32:10;7.95;;;2.22;;
22924;SDS011;11628;51.072;3.712;2022-08-03T05:34:35;6.07;;;1.70;;
22924;SDS011;11628;51.072;3.712;2022-08-03T05:37:01;6.70;;;2.08;;
22924;SDS011;11628;51.072;3.712;2022-08-03T05:39:27;5.93;;;1.95;;
22924;SDS011;11628;51.072;3.712;2022-08-03T05:41:52;7.63;;;1.90;;
22924;SDS011;11628;51.072;3.712;2022-08-03T05:44:18;9.93;;;2.35;;
22924;SDS011;11628;51.072;3.712;2022-08-03T05:46:44;6.95;;;1.83;;
22924;SDS011;11628;51.072;3.712;2022-08-03T05:49:10;7.32;;;2.03;;
22924;SDS011;11628;51.072;3.712;2022-08-03T05:51:36;6.28;;;1.73;;
22924;SDS011;11628;51.072;3.712;2022-08-03T05:54:02;8.27;;;2.97;;
22924;SDS011;11628;51.072;3.712;2022-08-03T05:56:28;7.95;;;2.10;;
22924;SDS011;11628;51.072;3.712;2022-08-03T05:58:53;10.00;;;2.25;;
22924;SDS011;11628;51.072;3.712;2022-08-03T06:01:20;6.75;;;2.05;;
22924;SDS011;11628;51.072;3.712;2022-08-03T06:03:46;8.15;;;1.80;;
22924;SDS011;11628;51.072;3.712;2022-08-03T06:06:12;12.23;;;2.58;;
22924;SDS011;11628;51.072;3.712;2022-08-03T06:08:39;8.77;;;1.85;;
22924;SDS011;11628;51.072;3.712;2022-08-03T06:11:05;7.72;;;1.98;;
22924;SDS011;11628;51.072;3.712;2022-08-03T06:13:30;12.77;;;2.33;;
22924;SDS011;11628;51.072;3.712;2022-08-03T06:15:56;6.82;;;2.35;;
22924;SDS011;11628;51.072;3.712;2022-08-03T06:18:22;8.00;;;1.98;;
22924;SDS011;11628;51.072;3.712;2022-08-03T06:20:48;8.60;;;2.17;;
22924;SDS011;11628;51.072;3.712;2022-08-03T06:23:15;9.68;;;2.33;;
22924;SDS011;11628;51.072;3.712;2022-08-03T06:25:41;8.77;;;2.22;;
22924;SDS011;11628;51.072;3.712;2022-08-03T06:28:07;9.80;;;2.92;;
22924;SDS011;11628;51.072;3.712;2022-08-03T06:30:33;8.85;;;2.22;;
22924;SDS011;11628;51.072;3.712;2022-08-03T06:32:59;11.30;;;2.10;;
22924;SDS011;11628;51.072;3.712;2022-08-03T06:35:25;10.30;;;4.03;;
22924;SDS011;11628;51.072;3.712;2022-08-03T06:37:52;11.93;;;4.38;;
22924;SDS011;11628;51.072;3.712;2022-08-03T06:40:21;14.20;;;2.38;;
22924;SDS011;11628;51.072;3.712;2022-08-03T06:42:58;10.90;;;2.60;;
22924;SDS011;11628;51.072;3.712;2022-08-03T06:45:28;12.05;;;2.85;;
22924;SDS011;11628;51.072;3.712;2022-08-03T06:48:03;10.80;;;2.63;;
22924;SDS011;11628;51.072;3.712;2022-08-03T06:50:34;11.50;;;3.20;;
22924;SDS011;11628;51.072;3.712;2022-08-03T06:53:01;15.30;;;4.13;;
22924;SDS011;11628;51.072;3.712;2022-08-03T06:55:28;10.75;;;2.90;;
22924;SDS011;11628;51.072;3.712;2022-08-03T06:57:53;11.20;;;2.05;;
22924;SDS011;11628;51.072;3.712;2022-08-03T07:00:19;7.95;;;1.70;;
22924;SDS011;11628;51.072;3.712;2022-08-03T07:02:45;9.93;;;2.20;;
22924;SDS011;11628;51.072;3.712;2022-08-03T07:05:12;8.85;;;1.92;;
22924;SDS011;11628;51.072;3.712;2022-08-03T07:07:38;6.40;;;1.63;;
22924;SDS011;11628;51.072;3.712;2022-08-03T07:10:05;10.40;;;2.38;;
22924;SDS011;11628;51.072;3.712;2022-08-03T07:12:32;13.07;;;2.38;;
22924;SDS011;11628;51.072;3.712;2022-08-03T07:14:58;11.43;;;2.72;;
22924;SDS011;11628;51.072;3.712;2022-08-03T07:17:25;9.25;;;2.15;;
22924;SDS011;11628;51.072;3.712;2022-08-03T07:19:51;14.95;;;2.10;;
22924;SDS011;11628;51.072;3.712;2022-08-03T07:22:16;9.30;;;2.30;;
22924;SDS011;11628;51.072;3.712;2022-08-03T07:24:42;7.75;;;2.67;;
22924;SDS011;11628;51.072;3.712;2022-08-03T07:27:08;11.48;;;3.03;;
22924;SDS011;11628;51.072;3.712;2022-08-03T07:29:34;10.25;;;2.38;;
22924;SDS011;11628;51.072;3.712;2022-08-03T07:32:04;10.55;;;2.30;;
22924;SDS011;11628;51.072;3.712;2022-08-03T07:34:30;11.88;;;2.85;;
22924;SDS011;11628;51.072;3.712;2022-08-03T07:36:56;12.32;;;2.85;;
22924;SDS011;11628;51.072;3.712;2022-08-03T07:39:22;9.80;;;2.25;;
22924;SDS011;11628;51.072;3.712;2022-08-03T07:41:47;8.48;;;2.97;;
22924;SDS011;11628;51.072;3.712;2022-08-03T07:44:15;11.05;;;2.58;;
22924;SDS011;11628;51.072;3.712;2022-08-03T07:46:42;12.32;;;2.72;;
22924;SDS011;11628;51.072;3.712;2022-08-03T07:49:07;12.43;;;2.53;;
22924;SDS011;11628;51.072;3.712;2022-08-03T07:51:33;11.95;;;3.33;;
22924;SDS011;11628;51.072;3.712;2022-08-03T07:53:59;12.55;;;2.70;;
22924;SDS011;11628;51.072;3.712;2022-08-03T07:56:25;10.07;;;2.10;;
22924;SDS011;11628;51.072;3.712;2022-08-03T07:58:52;14.10;;;3.13;;
22924;SDS011;11628;51.072;3.712;2022-08-03T08:01:18;11.35;;;2.42;;
22924;SDS011;11628;51.072;3.712;2022-08-03T08:03:48;8.93;;;2.85;;
22924;SDS011;11628;51.072;3.712;2022-08-03T08:06:14;11.05;;;2.50;;
22924;SDS011;11628;51.072;3.712;2022-08-03T08:08:41;10.50;;;2.60;;
22924;SDS011;11628;51.072;3.712;2022-08-03T08:11:08;8.38;;;2.20;;
22924;SDS011;11628;51.072;3.712;2022-08-03T08:13:33;11.68;;;2.47;;
22924;SDS011;11628;51.072;3.712;2022-08-03T08:16:01;12.85;;;3.58;;
22924;SDS011;11628;51.072;3.712;2022-08-03T08:18:27;8.70;;;2.55;;
22924;SDS011;11628;51.072;3.712;2022-08-03T08:20:56;20.83;;;3.25;;
22924;SDS011;11628;51.072;3.712;2022-08-03T08:23:22;12.60;;;3.35;;
22924;SDS011;11628;51.072;3.712;2022-08-03T08:25:48;13.35;;;2.45;;
22924;SDS011;11628;51.072;3.712;2022-08-03T08:28:20;15.38;;;2.38;;
22924;SDS011;11628;51.072;3.712;2022-08-03T08:30:47;10.52;;;2.55;;
22924;SDS011;11628;51.072;3.712;2022-08-03T08:33:12;10.32;;;2.28;;
22924;SDS011;11628;51.072;3.712;2022-08-03T08:35:38;13.77;;;2.75;;
22924;SDS011;11628;51.072;3.712;2022-08-03T08:38:07;10.07;;;2.80;;
22924;SDS011;11628;51.072;3.712;2022-08-03T08:40:33;12.52;;;2.63;;
22924;SDS011;11628;51.072;3.712;2022-08-03T08:42:58;9.98;;;2.13;;
22924;SDS011;11628;51.072;3.712;2022-08-03T08:45:24;11.90;;;2.40;;
22924;SDS011;11628;51.072;3.712;2022-08-03T08:47:50;15.13;;;3.00;;
22924;SDS011;11628;51.072;3.712;2022-08-03T08:50:19;15.18;;;2.78;;
22924;SDS011;11628;51.072;3.712;2022-08-03T08:52:47;12.35;;;2.65;;
22924;SDS011;11628;51.072;3.712;2022-08-03T08:55:14;12.00;;;2.17;;
22924;SDS011;11628;51.072;3.712;2022-08-03T08:57:49;10.65;;;2.28;;
22924;SDS011;11628;51.072;3.712;2022-08-03T09:00:17;8.27;;;2.22;;
22924;SDS011;11628;51.072;3.712;2022-08-03T09:02:43;10.98;;;2.47;;
22924;SDS011;11628;51.072;3.712;2022-08-03T09:05:13;15.07;;;2.97;;
22924;SDS011;11628;51.072;3.712;2022-08-03T09:07:41;14.35;;;2.83;;
22924;SDS011;11628;51.072;3.712;2022-08-03T09:10:09;10.45;;;2.22;;
22924;SDS011;11628;51.072;3.712;2022-08-03T09:12:42;11.57;;;2.25;;
22924;SDS011;11628;51.072;3.712;2022-08-03T09:17:47;14.65;;;2.30;;
22924;SDS011;11628;51.072;3.712;2022-08-03T09:20:14;13.30;;;2.00;;
22924;SDS011;11628;51.072;3.712;2022-08-03T09:22:55;12.68;;;2.88;;
22924;SDS011;11628;51.072;3.712;2022-08-03T09:25:26;11.53;;;2.33;;
22924;SDS011;11628;51.072;3.712;2022-08-03T09:28:03;8.65;;;1.77;;
22924;SDS011;11628;51.072;3.712;2022-08-03T09:30:34;11.38;;;2.45;;
22924;SDS011;11628;51.072;3.712;2022-08-03T09:33:04;10.90;;;2.13;;
22924;SDS011;11628;51.072;3.712;2022-08-03T09:40:38;10.13;;;2.42;;
22924;SDS011;11628;51.072;3.712;2022-08-03T09:43:04;8.55;;;1.67;;
22924;SDS011;11628;51.072;3.712;2022-08-03T09:45:32;9.00;;;1.92;;
22924;SDS011;11628;51.072;3.712;2022-08-03T09:50:55;11.18;;;1.88;;
22924;SDS011;11628;51.072;3.712;2022-08-03T09:53:27;7.50;;;1.80;;
22924;SDS011;11628;51.072;3.712;2022-08-03T09:58:21;9.07;;;1.98;;
22924;SDS011;11628;51.072;3.712;2022-08-03T10:00:54;10.52;;;2.50;;
22924;SDS011;11628;51.072;3.712;2022-08-03T10:03:25;8.32;;;2.20;;
22924;SDS011;11628;51.072;3.712;2022-08-03T10:05:53;8.48;;;2.20;;
22924;SDS011;11628;51.072;3.712;2022-08-03T10:08:19;9.30;;;2.35;;
22924;SDS011;11628;51.072;3.712;2022-08-03T10:10:46;8.57;;;2.15;;
22924;SDS011;11628;51.072;3.712;2022-08-03T10:13:14;8.32;;;2.13;;
22924;SDS011;11628;51.072;3.712;2022-08-03T10:15:41;9.73;;;2.33;;
22924;SDS011;11628;51.072;3.712;2022-08-03T10:18:07;8.55;;;1.77;;
22924;SDS011;11628;51.072;3.712;2022-08-03T10:20:37;7.15;;;1.98;;
22924;SDS011;11628;51.072;3.712;2022-08-03T10:23:09;11.13;;;2.10;;
22924;SDS011;11628;51.072;3.712;2022-08-03T10:25:36;10.40;;;2.05;;
22924;SDS011;11628;51.072;3.712;2022-08-03T10:28:04;6.03;;;1.58;;
22924;SDS011;11628;51.072;3.712;2022-08-03T10:30:32;6.00;;;1.55;;
22924;SDS011;11628;51.072;3.712;2022-08-03T10:33:01;7.93;;;1.90;;
22924;SDS011;11628;51.072;3.712;2022-08-03T10:35:32;8.05;;;2.40;;
22924;SDS011;11628;51.072;3.712;2022-08-03T10:38:03;8.65;;;1.83;;
22924;SDS011;11628;51.072;3.712;2022-08-03T10:40:35;9.35;;;1.75;;
22924;SDS011;11628;51.072;3.712;2022-08-03T10:43:08;7.40;;;1.80;;
22924;SDS011;11628;51.072;3.712;2022-08-03T10:45:40;7.20;;;1.52;;
22924;SDS011;11628;51.072;3.712;2022-08-03T10:48:08;4.43;;;1.42;;
22924;SDS011;11628;51.072;3.712;2022-08-03T10:50:35;7.22;;;1.60;;
22924;SDS011;11628;51.072;3.712;2022-08-03T10:53:02;4.30;;;1.33;;
22924;SDS011;11628;51.072;3.712;2022-08-03T10:55:39;8.68;;;1.95;;
22924;SDS011;11628;51.072;3.712;2022-08-03T11:01:03;5.43;;;1.55;;
22924;SDS011;11628;51.072;3.712;2022-08-03T11:03:30;6.45;;;1.75;;
22924;SDS011;11628;51.072;3.712;2022-08-03T11:06:16;6.82;;;1.40;;
22924;SDS011;11628;51.072;3.712;2022-08-03T11:08:49;10.65;;;2.03;;
22924;SDS011;11628;51.072;3.712;2022-08-03T11:11:35;4.82;;;1.52;;
22924;SDS011;11628;51.072;3.712;2022-08-03T11:14:03;7.72;;;1.83;;
22924;SDS011;11628;51.072;3.712;2022-08-03T11:16:34;3.70;;;1.30;;
22924;SDS011;11628;51.072;3.712;2022-08-03T11:19:09;6.03;;;1.40;;
22924;SDS011;11628;51.072;3.712;2022-08-03T11:35:17;6.90;;;1.60;;
22924;SDS011;11628;51.072;3.712;2022-08-03T11:42:58;5.80;;;1.13;;
22924;SDS011;11628;51.072;3.712;2022-08-03T11:45:24;5.05;;;1.20;;
22924;SDS011;11628;51.072;3.712;2022-08-03T11:47:51;3.92;;;0.95;;
22924;SDS011;11628;51.072;3.712;2022-08-03T11:50:19;6.57;;;1.10;;
22924;SDS011;11628;51.072;3.712;2022-08-03T11:52:45;7.90;;;2.33;;
22924;SDS011;11628;51.072;3.712;2022-08-03T11:55:13;4.07;;;1.15;;
22924;SDS011;11628;51.072;3.712;2022-08-03T11:57:40;4.90;;;1.10;;
22924;SDS011;11628;51.072;3.712;2022-08-03T12:00:19;4.13;;;1.80;;
22924;SDS011;11628;51.072;3.712;2022-08-03T12:05:31;6.82;;;1.42;;
22924;SDS011;11628;51.072;3.712;2022-08-03T12:08:00;5.15;;;1.40;;
22924;SDS011;11628;51.072;3.712;2022-08-03T12:10:26;7.45;;;1.88;;
22924;SDS011;11628;51.072;3.712;2022-08-03T12:12:55;7.30;;;1.80;;
22924;SDS011;11628;51.072;3.712;2022-08-03T12:15:25;7.72;;;1.83;;
22924;SDS011;11628;51.072;3.712;2022-08-03T12:17:52;6.43;;;1.63;;
22924;SDS011;11628;51.072;3.712;2022-08-03T12:20:25;6.88;;;2.25;;
22924;SDS011;11628;51.072;3.712;2022-08-03T12:22:52;4.75;;;1.10;;
22924;SDS011;11628;51.072;3.712;2022-08-03T12:25:25;3.70;;;1.20;;
22924;SDS011;11628;51.072;3.712;2022-08-03T12:27:52;6.05;;;1.50;;
22924;SDS011;11628;51.072;3.712;2022-08-03T12:30:29;7.47;;;1.45;;
22924;SDS011;11628;51.072;3.712;2022-08-03T12:32:55;5.50;;;1.65;;
22924;SDS011;11628;51.072;3.712;2022-08-03T12:35:22;7.25;;;1.50;;
22924;SDS011;11628;51.072;3.712;2022-08-03T12:37:48;6.05;;;1.63;;
22924;SDS011;11628;51.072;3.712;2022-08-03T12:40:22;6.07;;;1.40;;
22924;SDS011;11628;51.072;3.712;2022-08-03T12:42:51;7.00;;;1.40;;
22924;SDS011;11628;51.072;3.712;2022-08-03T12:45:18;6.65;;;1.77;;
22924;SDS011;11628;51.072;3.712;2022-08-03T12:47:58;6.82;;;1.73;;
22924;SDS011;11628;51.072;3.712;2022-08-03T12:52:56;5.90;;;1.38;;
22924;SDS011;11628;51.072;3.712;2022-08-03T12:55:23;4.95;;;1.27;;
22924;SDS011;11628;51.072;3.712;2022-08-03T12:57:57;4.35;;;1.38;;
22924;SDS011;11628;51.072;3.712;2022-08-03T13:00:23;5.32;;;1.10;;
22924;SDS011;11628;51.072;3.712;2022-08-03T13:02:58;8.07;;;1.65;;
22924;SDS011;11628;51.072;3.712;2022-08-03T13:05:26;4.20;;;1.17;;
22924;SDS011;11628;51.072;3.712;2022-08-03T13:07:52;7.65;;;1.33;;
22924;SDS011;11628;51.072;3.712;2022-08-03T13:10:31;8.43;;;1.50;;
22924;SDS011;11628;51.072;3.712;2022-08-03T13:12:57;13.50;;;8.70;;
22924;SDS011;11628;51.072;3.712;2022-08-03T13:15:27;7.85;;;4.03;;
22924;SDS011;11628;51.072;3.712;2022-08-03T13:17:54;4.43;;;1.45;;
22924;SDS011;11628;51.072;3.712;2022-08-03T13:20:21;7.65;;;1.50;;
22924;SDS011;11628;51.072;3.712;2022-08-03T13:22:47;6.45;;;1.30;;
22924;SDS011;11628;51.072;3.712;2022-08-03T13:25:13;5.32;;;1.00;;
22924;SDS011;11628;51.072;3.712;2022-08-03T13:27:39;4.82;;;1.38;;
22924;SDS011;11628;51.072;3.712;2022-08-03T13:30:05;3.90;;;1.50;;
22924;SDS011;11628;51.072;3.712;2022-08-03T13:32:32;7.57;;;2.40;;
22924;SDS011;11628;51.072;3.712;2022-08-03T13:34:58;5.20;;;1.30;;
22924;SDS011;11628;51.072;3.712;2022-08-03T13:37:24;3.63;;;1.35;;
22924;SDS011;11628;51.072;3.712;2022-08-03T13:39:50;3.03;;;1.15;;
22924;SDS011;11628;51.072;3.712;2022-08-03T13:42:16;5.10;;;2.22;;
22924;SDS011;11628;51.072;3.712;2022-08-03T13:44:41;5.22;;;1.17;;
22924;SDS011;11628;51.072;3.712;2022-08-03T13:47:07;3.75;;;1.35;;
22924;SDS011;11628;51.072;3.712;2022-08-03T13:49:33;8.38;;;1.42;;
22924;SDS011;11628;51.072;3.712;2022-08-03T13:51:59;6.18;;;1.40;;
22924;SDS011;11628;51.072;3.712;2022-08-03T13:54:25;4.70;;;1.23;;
22924;SDS011;11628;51.072;3.712;2022-08-03T13:56:50;8.40;;;3.65;;
22924;SDS011;11628;51.072;3.712;2022-08-03T13:59:23;4.85;;;1.30;;
22924;SDS011;11628;51.072;3.712;2022-08-03T14:01:50;8.65;;;4.47;;
22924;SDS011;11628;51.072;3.712;2022-08-03T14:04:16;4.20;;;2.33;;
22924;SDS011;11628;51.072;3.712;2022-08-03T14:06:43;4.30;;;1.15;;
22924;SDS011;11628;51.072;3.712;2022-08-03T14:09:12;3.45;;;1.00;;
22924;SDS011;11628;51.072;3.712;2022-08-03T14:11:39;3.60;;;1.00;;
22924;SDS011;11628;51.072;3.712;2022-08-03T14:14:05;4.32;;;1.20;;
22924;SDS011;11628;51.072;3.712;2022-08-03T14:16:31;4.03;;;1.60;;
22924;SDS011;11628;51.072;3.712;2022-08-03T14:18:57;3.33;;;1.15;;
22924;SDS011;11628;51.072;3.712;2022-08-03T14:21:23;5.75;;;1.10;;
22924;SDS011;11628;51.072;3.712;2022-08-03T14:23:48;5.63;;;1.67;;
22924;SDS011;11628;51.072;3.712;2022-08-03T14:26:14;4.40;;;1.30;;
22924;SDS011;11628;51.072;3.712;2022-08-03T14:28:42;4.47;;;1.00;;
22924;SDS011;11628;51.072;3.712;2022-08-03T14:31:08;4.22;;;1.75;;
22924;SDS011;11628;51.072;3.712;2022-08-03T14:33:34;2.70;;;0.98;;
22924;SDS011;11628;51.072;3.712;2022-08-03T14:36:00;6.63;;;1.88;;
22924;SDS011;11628;51.072;3.712;2022-08-03T14:38:26;8.18;;;1.80;;
22924;SDS011;11628;51.072;3.712;2022-08-03T14:40:52;4.35;;;1.20;;
22924;SDS011;11628;51.072;3.712;2022-08-03T14:43:17;5.57;;;1.95;;
22924;SDS011;11628;51.072;3.712;2022-08-03T14:45:49;5.13;;;1.20;;
22924;SDS011;11628;51.072;3.712;2022-08-03T14:48:20;5.57;;;1.60;;
22924;SDS011;11628;51.072;3.712;2022-08-03T14:50:47;3.78;;;1.00;;
22924;SDS011;11628;51.072;3.712;2022-08-03T14:53:13;3.08;;;1.10;;
22924;SDS011;11628;51.072;3.712;2022-08-03T14:55:41;3.58;;;1.63;;
22924;SDS011;11628;51.072;3.712;2022-08-03T14:58:07;3.80;;;1.10;;
22924;SDS011;11628;51.072;3.712;2022-08-03T15:00:33;3.80;;;1.38;;
22924;SDS011;11628;51.072;3.712;2022-08-03T15:03:00;3.33;;;0.63;;
22924;SDS011;11628;51.072;3.712;2022-08-03T15:05:26;4.10;;;1.33;;
22924;SDS011;11628;51.072;3.712;2022-08-03T15:07:53;3.88;;;0.90;;
22924;SDS011;11628;51.072;3.712;2022-08-03T15:10:18;1.98;;;0.75;;
22924;SDS011;11628;51.072;3.712;2022-08-03T15:12:44;4.32;;;1.13;;
22924;SDS011;11628;51.072;3.712;2022-08-03T15:15:10;3.13;;;0.85;;
22924;SDS011;11628;51.072;3.712;2022-08-03T15:17:36;5.95;;;2.05;;
22924;SDS011;11628;51.072;3.712;2022-08-03T15:20:02;4.00;;;1.27;;
22924;SDS011;11628;51.072;3.712;2022-08-03T15:22:28;5.22;;;1.30;;
22924;SDS011;11628;51.072;3.712;2022-08-03T15:24:54;4.32;;;0.98;;
22924;SDS011;11628;51.072;3.712;2022-08-03T15:27:21;3.90;;;1.30;;
22924;SDS011;11628;51.072;3.712;2022-08-03T15:29:47;5.60;;;2.60;;
22924;SDS011;11628;51.072;3.712;2022-08-03T15:32:12;2.08;;;0.82;;
22924;SDS011;11628;51.072;3.712;2022-08-03T15:34:38;6.20;;;0.95;;
22924;SDS011;11628;51.072;3.712;2022-08-03T15:37:04;4.05;;;0.82;;